createdAt,value
2018-02-03T00:01:48.307Z,95.73
2018-02-03T00:04:14.112Z,95.78
2018-02-03T00:06:39.932Z,95.57
2018-02-03T00:09:06.334Z,96.01
2018-02-03T00:11:32.128Z,95.56
2018-02-03T00:13:57.990Z,95.43
2018-02-03T00:16:23.838Z,94.96
2018-02-03T00:18:49.621Z,95.46
2018-02-03T00:21:15.445Z,95.31
2018-02-03T00:23:41.392Z,95.10
2018-02-03T00:26:07.253Z,95.14
2018-02-03T00:28:33.038Z,94.87
2018-02-03T00:30:59.403Z,94.86
2018-02-03T00:33:25.631Z,94.22
2018-02-03T00:35:51.539Z,94.42
2018-02-03T00:38:17.697Z,93.80
2018-02-03T00:40:43.495Z,93.75
2018-02-03T00:43:09.414Z,93.60
2018-02-03T00:45:35.479Z,94.59
2018-02-03T00:48:01.296Z,95.11
2018-02-03T00:50:27.094Z,95.10
2018-02-03T00:52:52.874Z,95.64
2018-02-03T00:55:18.670Z,95.77
2018-02-03T00:57:44.492Z,95.72
2018-02-03T01:00:10.292Z,95.64
2018-02-03T01:02:36.083Z,96.27
2018-02-03T01:05:01.923Z,95.99
2018-02-03T01:07:27.723Z,96.30
2018-02-03T01:09:53.519Z,96.58
2018-02-03T01:12:19.310Z,96.16
2018-02-03T01:14:45.106Z,95.42
2018-02-03T01:17:10.901Z,96.03
2018-02-03T01:19:36.726Z,95.86
2018-02-03T01:22:02.603Z,95.20
2018-02-03T01:24:28.360Z,94.94
2018-02-03T01:26:54.152Z,94.88
2018-02-03T01:29:19.938Z,94.71
2018-02-03T01:31:45.761Z,95.27
2018-02-03T01:34:11.577Z,95.51
2018-02-03T01:36:37.379Z,95.54
2018-02-03T01:39:03.237Z,96.23
2018-02-03T01:41:29.047Z,96.62
2018-02-03T01:43:54.856Z,96.06
2018-02-03T01:46:20.654Z,96.35
2018-02-03T01:48:46.444Z,95.91
2018-02-03T01:51:12.243Z,95.79
2018-02-03T01:53:38.032Z,95.70
2018-02-03T01:56:03.844Z,95.63
2018-02-03T01:58:29.641Z,96.04
2018-02-03T02:00:55.435Z,95.65
2018-02-03T02:03:21.253Z,95.68
2018-02-03T02:05:47.040Z,96.06
2018-02-03T02:08:12.838Z,96.19
2018-02-03T02:10:38.629Z,96.04
2018-02-03T02:13:04.433Z,96.73
2018-02-03T02:15:30.216Z,97.06
2018-02-03T02:17:56.008Z,97.33
2018-02-03T02:20:21.801Z,97.99
2018-02-03T02:22:47.582Z,97.66
2018-02-03T02:25:13.387Z,100.00
2018-02-03T02:27:39.216Z,99.77
2018-02-03T02:30:05.019Z,100.00
2018-02-03T02:32:30.800Z,94.91
2018-02-03T02:34:56.592Z,94.82
2018-02-03T02:37:22.412Z,95.88
2018-02-03T02:39:48.235Z,96.49
2018-02-03T02:42:14.022Z,97.32
2018-02-03T02:44:40.039Z,97.16
2018-02-03T02:47:05.855Z,97.53
2018-02-03T02:49:31.643Z,97.23
2018-02-03T02:51:57.455Z,97.13
2018-02-03T02:54:23.247Z,96.93
2018-02-03T02:56:49.095Z,97.70
2018-02-03T02:59:15.237Z,97.50
2018-02-03T03:01:41.023Z,97.22
2018-02-03T03:04:06.812Z,97.28
2018-02-03T03:06:32.607Z,97.39
2018-02-03T03:08:58.394Z,97.61
2018-02-03T03:11:24.182Z,97.43
2018-02-03T03:13:49.982Z,97.82
2018-02-03T03:16:15.758Z,97.15
2018-02-03T03:18:41.554Z,96.99
2018-02-03T03:21:07.327Z,97.65
2018-02-03T03:23:33.123Z,97.43
2018-02-03T03:25:58.932Z,97.13
2018-02-03T03:28:24.716Z,97.03
2018-02-03T03:30:50.499Z,96.59
2018-02-03T03:33:16.293Z,96.65
2018-02-03T03:35:42.102Z,96.18
2018-02-03T03:38:07.970Z,96.80
2018-02-03T03:40:33.767Z,97.81
2018-02-03T03:42:59.554Z,97.26
2018-02-03T03:45:25.353Z,97.10
2018-02-03T03:47:51.141Z,97.65
2018-02-03T03:50:16.955Z,98.19
2018-02-03T03:52:42.747Z,97.85
2018-02-03T03:55:08.543Z,97.58
2018-02-03T03:57:34.322Z,97.20
2018-02-03T04:00:00.120Z,97.60
2018-02-03T04:02:25.928Z,99.56
2018-02-03T04:04:51.716Z,99.62
2018-02-03T04:07:17.523Z,98.94
2018-02-03T04:09:43.315Z,98.37
2018-02-03T04:12:09.103Z,96.26
2018-02-03T04:14:35.156Z,96.17
2018-02-03T04:17:00.934Z,96.65
2018-02-03T04:19:26.743Z,95.51
2018-02-03T04:21:52.572Z,95.41
2018-02-03T04:24:18.342Z,96.07
2018-02-03T04:26:44.372Z,94.97
2018-02-03T04:29:10.192Z,94.30
2018-02-03T04:31:35.972Z,95.20
2018-02-03T04:34:01.761Z,94.32
2018-02-03T04:36:27.539Z,94.14
2018-02-03T04:38:53.328Z,94.62
2018-02-03T04:41:19.124Z,95.79
2018-02-03T04:43:44.925Z,94.69
2018-02-03T04:46:10.728Z,94.85
2018-02-03T04:48:36.498Z,95.20
2018-02-03T04:51:02.312Z,95.90
2018-02-03T04:53:28.506Z,96.02
2018-02-03T04:55:54.279Z,95.82
2018-02-03T04:58:20.082Z,96.37
2018-02-03T05:00:45.930Z,95.91
2018-02-03T05:03:11.751Z,95.48
2018-02-03T05:05:37.568Z,95.46
2018-02-03T05:08:03.368Z,94.54
2018-02-03T05:10:29.164Z,94.78
2018-02-03T05:12:54.995Z,95.16
2018-02-03T05:15:20.752Z,95.65
2018-02-03T05:17:46.556Z,95.53
2018-02-03T05:20:12.415Z,96.20
2018-02-03T05:22:38.202Z,97.05
2018-02-03T05:25:04.005Z,96.77
2018-02-03T05:27:29.804Z,96.92
2018-02-03T05:29:55.608Z,96.66
2018-02-03T05:32:21.379Z,96.59
2018-02-03T05:34:47.202Z,96.77
2018-02-03T05:37:13.020Z,96.22
2018-02-03T05:39:38.819Z,95.89
2018-02-03T05:42:04.608Z,95.99
2018-02-03T05:44:31.256Z,96.04
2018-02-03T05:46:57.087Z,96.52
2018-02-03T05:49:22.888Z,95.64
2018-02-03T05:51:48.671Z,95.51
2018-02-03T05:54:14.459Z,95.20
2018-02-03T05:56:40.242Z,96.25
2018-02-03T05:59:06.066Z,96.11
2018-02-03T06:01:31.879Z,95.50
2018-02-03T06:03:57.677Z,95.10
2018-02-03T06:06:23.669Z,95.05
2018-02-03T06:08:49.455Z,94.64
2018-02-03T06:11:15.242Z,94.48
2018-02-03T06:13:41.035Z,94.27
2018-02-03T06:16:06.866Z,94.28
2018-02-03T06:18:32.871Z,94.08
2018-02-03T06:20:58.771Z,94.39
2018-02-03T06:23:24.567Z,94.75
2018-02-03T06:25:50.364Z,94.79
2018-02-03T06:28:16.148Z,94.83
2018-02-03T06:30:41.975Z,94.43
2018-02-03T06:33:07.770Z,94.76
2018-02-03T06:35:33.576Z,94.91
2018-02-03T06:37:59.381Z,94.94
2018-02-03T06:40:25.175Z,95.25
2018-02-03T06:42:50.990Z,94.68
2018-02-03T06:45:16.774Z,94.76
2018-02-03T06:47:42.575Z,94.57
2018-02-03T06:50:08.364Z,94.89
2018-02-03T06:52:34.155Z,95.14
2018-02-03T06:55:00.061Z,94.70
2018-02-03T06:57:25.888Z,93.90
2018-02-03T06:59:51.715Z,94.14
2018-02-03T07:02:17.515Z,93.76
2018-02-03T07:04:43.301Z,93.78
2018-02-03T07:07:09.122Z,93.60
2018-02-03T07:09:35.996Z,92.72
2018-02-03T07:12:02.143Z,92.91
2018-02-03T07:14:27.952Z,92.81
2018-02-03T07:16:53.740Z,92.82
2018-02-03T07:19:19.511Z,92.75
2018-02-03T07:21:45.292Z,92.31
2018-02-03T07:24:11.099Z,92.26
2018-02-03T07:26:36.874Z,91.84
2018-02-03T07:29:03.018Z,92.97
2018-02-03T07:31:28.812Z,93.46
2018-02-03T07:33:54.979Z,91.92
2018-02-03T07:36:20.895Z,92.04
2018-02-03T07:38:46.723Z,92.10
2018-02-03T07:41:12.548Z,92.94
2018-02-03T07:43:38.346Z,92.12
2018-02-03T07:46:04.152Z,93.22
2018-02-03T07:48:29.996Z,92.82
2018-02-03T07:50:55.791Z,92.08
2018-02-03T07:53:21.588Z,92.91
2018-02-03T07:55:47.378Z,92.02
2018-02-03T07:58:13.167Z,93.20
2018-02-03T08:00:38.982Z,92.50
2018-02-03T08:03:04.758Z,92.57
2018-02-03T08:05:30.571Z,92.26
2018-02-03T08:07:56.367Z,91.89
2018-02-03T08:10:22.164Z,92.14
2018-02-03T08:12:48.035Z,91.36
2018-02-03T08:15:13.843Z,90.90
2018-02-03T08:17:39.642Z,90.58
2018-02-03T08:20:06.746Z,90.74
2018-02-03T08:22:32.528Z,91.79
2018-02-03T08:24:58.315Z,91.37
2018-02-03T08:27:24.113Z,91.75
2018-02-03T08:29:49.891Z,90.59
2018-02-03T08:32:15.698Z,91.69
2018-02-03T08:34:41.476Z,92.16
2018-02-03T08:37:07.281Z,91.45
2018-02-03T08:39:33.248Z,91.28
2018-02-03T08:41:59.140Z,91.59
2018-02-03T08:44:24.967Z,91.78
2018-02-03T08:46:50.798Z,91.59
2018-02-03T08:49:16.588Z,91.65
2018-02-03T08:51:42.416Z,91.41
2018-02-03T08:54:08.187Z,92.24
2018-02-03T08:56:33.969Z,92.27
2018-02-03T08:58:59.767Z,92.10
2018-02-03T09:01:25.575Z,92.53
2018-02-03T09:03:51.633Z,93.48
2018-02-03T09:06:18.364Z,94.01
2018-02-03T09:08:44.398Z,93.97
2018-02-03T09:11:10.186Z,94.09
2018-02-03T09:13:36.196Z,94.00
2018-02-03T09:16:02.627Z,94.12
2018-02-03T09:18:28.645Z,94.84
2018-02-03T09:20:54.474Z,94.68
2018-02-03T09:23:20.415Z,95.15
2018-02-03T09:25:46.283Z,94.40
2018-02-03T09:28:12.100Z,94.54
2018-02-03T09:30:38.057Z,94.65
2018-02-03T09:33:03.837Z,95.02
2018-02-03T09:35:30.133Z,95.49
2018-02-03T09:37:55.931Z,95.43
2018-02-03T09:40:22.019Z,95.05
2018-02-03T09:42:47.810Z,95.30
2018-02-03T09:45:13.736Z,94.74
2018-02-03T09:47:39.885Z,94.66
2018-02-03T09:50:05.701Z,94.85
2018-02-03T09:52:31.587Z,94.87
2018-02-03T09:54:57.370Z,93.39
2018-02-03T09:57:23.472Z,93.65
2018-02-03T09:59:49.274Z,93.34
2018-02-03T10:02:15.157Z,93.58
2018-02-03T10:04:41.416Z,94.01
2018-02-03T10:07:07.223Z,93.21
2018-02-03T10:09:33.712Z,93.54
2018-02-03T10:11:59.503Z,92.77
2018-02-03T10:14:25.453Z,93.24
2018-02-03T10:16:51.358Z,93.22
2018-02-03T10:19:17.718Z,93.86
2018-02-03T10:21:43.563Z,93.61
2018-02-03T10:24:09.359Z,93.77
2018-02-03T10:26:35.176Z,94.34
2018-02-03T10:29:00.942Z,94.12
2018-02-03T10:31:27.319Z,94.83
2018-02-03T10:33:53.088Z,94.01
2018-02-03T10:36:19.368Z,93.97
2018-02-03T10:38:45.185Z,94.08
2018-02-03T10:41:11.176Z,94.42
2018-02-03T10:43:37.012Z,94.52
2018-02-03T10:46:02.801Z,93.54
2018-02-03T10:48:28.727Z,94.19
2018-02-03T10:50:54.555Z,94.92
2018-02-03T10:53:20.815Z,94.84
2018-02-03T10:55:46.599Z,95.12
2018-02-03T10:58:12.663Z,94.89
2018-02-03T11:00:45.054Z,94.73
2018-02-03T11:03:10.874Z,93.36
2018-02-03T11:05:36.912Z,93.95
2018-02-03T11:08:02.841Z,94.18
2018-02-03T11:10:28.645Z,94.63
2018-02-03T11:12:54.426Z,94.66
2018-02-03T11:15:20.239Z,94.18
2018-02-03T11:17:46.432Z,92.65
2018-02-03T11:20:12.239Z,93.54
2018-02-03T11:22:38.038Z,93.32
2018-02-03T11:25:03.845Z,92.81
2018-02-03T11:27:29.652Z,92.39
2018-02-03T11:29:55.445Z,93.81
2018-02-03T11:32:21.251Z,93.09
2018-02-03T11:34:47.039Z,92.86
2018-02-03T11:37:12.847Z,92.61
2018-02-03T11:39:38.644Z,92.70
2018-02-03T11:42:04.450Z,93.49
2018-02-03T11:44:30.252Z,92.66
2018-02-03T11:46:56.131Z,92.94
2018-02-03T11:49:21.965Z,91.73
2018-02-03T11:51:47.759Z,92.60
2018-02-03T11:54:13.539Z,92.96
2018-02-03T11:56:39.319Z,92.61
2018-02-03T11:59:05.120Z,92.41
2018-02-03T12:01:30.940Z,92.80
2018-02-03T12:03:56.728Z,92.66
2018-02-03T12:06:23.550Z,93.25
2018-02-03T12:08:49.396Z,91.80
2018-02-03T12:11:15.191Z,91.98
2018-02-03T12:13:41.006Z,92.21
2018-02-03T12:16:06.903Z,92.63
2018-02-03T12:18:32.674Z,92.94
2018-02-03T12:20:58.659Z,92.87
2018-02-03T12:23:24.479Z,93.01
2018-02-03T12:25:50.290Z,92.79
2018-02-03T12:28:16.135Z,93.36
2018-02-03T12:30:42.856Z,93.80
2018-02-03T12:33:08.672Z,93.59
2018-02-03T12:35:35.251Z,93.76
2018-02-03T12:38:01.055Z,94.09
2018-02-03T12:40:26.848Z,94.16
2018-02-03T12:42:52.635Z,93.36
2018-02-03T12:45:18.475Z,93.14
2018-02-03T12:47:44.286Z,93.08
2018-02-03T12:50:10.095Z,93.71
2018-02-03T12:52:36.223Z,93.28
2018-02-03T12:55:02.078Z,93.38
2018-02-03T12:57:27.872Z,93.32
2018-02-03T12:59:53.677Z,93.36
2018-02-03T13:02:19.454Z,92.55
2018-02-03T13:04:45.268Z,92.22
2018-02-03T13:07:11.106Z,93.66
2018-02-03T13:09:36.910Z,94.82
2018-02-03T13:12:02.728Z,94.47
2018-02-03T13:14:28.527Z,91.91
2018-02-03T13:16:54.342Z,90.81
2018-02-03T13:19:21.236Z,90.96
2018-02-03T13:21:47.022Z,91.23
2018-02-03T13:24:14.805Z,88.20
2018-02-03T13:26:41.522Z,89.60
2018-02-03T13:29:07.307Z,88.47
2018-02-03T13:31:33.434Z,89.71
2018-02-03T13:33:59.250Z,88.97
2018-02-03T13:36:25.052Z,88.61
2018-02-03T13:38:50.846Z,88.91
2018-02-03T13:41:16.656Z,89.29
2018-02-03T13:43:42.812Z,88.96
2018-02-03T13:46:08.646Z,88.92
2018-02-03T13:48:34.450Z,90.70
2018-02-03T13:51:00.256Z,89.52
2018-02-03T13:53:26.057Z,88.07
2018-02-03T13:55:51.880Z,88.98
2018-02-03T13:58:17.740Z,88.61
2018-02-03T14:00:43.551Z,88.92
2018-02-03T14:03:09.345Z,89.38
2018-02-03T14:05:35.140Z,91.36
2018-02-03T14:08:01.911Z,90.11
2018-02-03T14:10:28.091Z,86.33
2018-02-03T14:12:53.897Z,88.46
2018-02-03T14:15:19.747Z,87.79
2018-02-03T14:17:45.548Z,88.08
2018-02-03T14:20:11.358Z,88.70
2018-02-03T14:22:37.160Z,88.95
2018-02-03T14:27:52.608Z,87.75
2018-02-03T14:30:18.403Z,87.95
2018-02-03T14:32:44.203Z,87.55
2018-02-03T14:35:10.018Z,88.53
2018-02-03T14:37:35.805Z,87.33
2018-02-03T14:40:02.592Z,88.41
2018-02-03T14:42:28.422Z,88.00
2018-02-03T14:44:54.215Z,89.49
2018-02-03T14:47:20.005Z,88.83
2018-02-03T14:49:45.900Z,88.88
2018-02-03T14:52:11.711Z,87.33
2018-02-03T14:54:37.511Z,87.85
2018-02-03T14:57:03.315Z,87.96
2018-02-03T14:59:29.128Z,87.61
2018-02-03T15:01:55.199Z,87.58
2018-02-03T15:04:21.005Z,88.56
2018-02-03T15:06:46.828Z,88.97
2018-02-03T15:09:12.623Z,88.03
2018-02-03T15:11:38.407Z,88.62
2018-02-03T15:14:04.240Z,87.97
2018-02-03T15:16:30.059Z,88.06
2018-02-03T15:18:55.865Z,87.90
2018-02-03T15:21:21.671Z,87.30
2018-02-03T15:23:47.505Z,87.95
2018-02-03T15:26:13.331Z,88.56
2018-02-03T15:28:39.121Z,87.61
2018-02-03T15:31:04.904Z,87.87
2018-02-03T15:33:30.721Z,87.23
2018-02-03T15:35:56.528Z,87.03
2018-02-03T15:38:22.443Z,87.93
2018-02-03T15:40:48.251Z,87.34
2018-02-03T15:43:14.031Z,87.86
2018-02-03T15:45:39.860Z,89.13
2018-02-03T15:48:05.669Z,87.17
2018-02-03T15:50:31.516Z,87.55
2018-02-03T15:52:57.307Z,87.71
2018-02-03T15:55:23.091Z,87.70
2018-02-03T15:57:48.894Z,86.22
2018-02-03T16:00:14.687Z,87.07
2018-02-03T16:02:40.474Z,86.68
2018-02-03T16:05:06.316Z,86.32
2018-02-03T16:07:32.071Z,86.20
2018-02-03T16:09:57.920Z,84.53
2018-02-03T16:12:23.715Z,84.99
2018-02-03T16:14:49.504Z,84.49
2018-02-03T16:17:15.298Z,86.14
2018-02-03T16:19:41.109Z,87.31
2018-02-03T16:22:06.931Z,86.80
2018-02-03T16:24:32.716Z,85.22
2018-02-03T16:26:58.531Z,83.93
2018-02-03T16:29:24.386Z,84.71
2018-02-03T16:31:50.212Z,83.82
2018-02-03T16:34:16.017Z,83.40
2018-02-03T16:36:42.007Z,90.16
2018-02-03T16:39:07.813Z,83.40
2018-02-03T16:41:33.666Z,82.70
2018-02-03T16:43:59.492Z,83.60
2018-02-03T16:46:25.300Z,82.27
2018-02-03T16:48:51.108Z,83.53
2018-02-03T16:51:16.918Z,83.74
2018-02-03T16:53:42.721Z,83.34
2018-02-03T16:56:08.540Z,83.30
2018-02-03T16:58:34.339Z,83.14
2018-02-03T17:01:00.152Z,83.22
2018-02-03T17:03:25.947Z,83.44
2018-02-03T17:05:51.742Z,83.61
2018-02-03T17:08:17.675Z,82.95
2018-02-03T17:10:43.465Z,83.22
2018-02-03T17:13:09.321Z,83.45
2018-02-03T17:15:35.134Z,83.59
2018-02-03T17:18:00.939Z,83.91
2018-02-03T17:20:27.047Z,83.71
2018-02-03T17:22:52.874Z,83.14
2018-02-03T17:25:18.701Z,83.13
2018-02-03T17:27:44.532Z,85.08
2018-02-03T17:30:10.344Z,85.50
2018-02-03T17:32:36.148Z,85.58
2018-02-03T17:35:02.019Z,84.09
2018-02-03T17:37:34.020Z,83.15
2018-02-03T17:39:59.848Z,84.32
2018-02-03T17:42:25.639Z,83.12
2018-02-03T17:44:51.459Z,83.24
2018-02-03T17:47:17.291Z,83.30
2018-02-03T17:49:43.088Z,84.06
2018-02-03T17:52:08.893Z,94.25
2018-02-03T17:54:34.955Z,92.85
2018-02-03T17:57:06.876Z,83.68
2018-02-03T17:59:32.676Z,83.47
2018-02-03T18:01:58.510Z,84.42
2018-02-03T18:04:24.324Z,85.40
2018-02-03T18:06:56.330Z,88.05
2018-02-03T18:09:22.115Z,86.55
2018-02-03T18:11:47.947Z,85.55
2018-02-03T18:14:13.751Z,86.29
2018-02-03T18:16:39.598Z,87.48
2018-02-03T18:19:05.596Z,86.64
2018-02-03T18:21:31.394Z,86.00
2018-02-03T18:23:57.179Z,88.95
2018-02-03T18:26:22.980Z,85.80
2018-02-03T18:28:48.771Z,85.64
2018-02-03T18:31:14.583Z,85.96
2018-02-03T18:33:40.392Z,84.73
2018-02-03T18:36:06.184Z,85.53
2018-02-03T18:38:31.996Z,85.50
2018-02-03T18:40:57.804Z,85.82
2018-02-03T18:43:23.615Z,85.57
2018-02-03T18:45:49.436Z,86.03
2018-02-03T18:48:15.226Z,86.67
2018-02-03T18:50:41.007Z,87.49
2018-02-03T18:53:06.800Z,87.06
2018-02-03T18:55:33.883Z,87.73
2018-02-03T18:57:59.706Z,87.44
2018-02-03T19:00:25.518Z,86.83
2018-02-03T19:02:51.334Z,88.46
2018-02-03T19:05:17.419Z,86.82
2018-02-03T19:07:43.216Z,87.21
2018-02-03T19:10:09.024Z,87.19
2018-02-03T19:12:34.844Z,87.22
2018-02-03T19:15:00.649Z,87.56
2018-02-03T19:17:26.504Z,88.07
2018-02-03T19:19:52.314Z,87.18
2018-02-03T19:22:18.123Z,87.28
2018-02-03T19:24:43.956Z,87.88
2018-02-03T19:27:09.743Z,88.28
2018-02-03T19:29:35.536Z,87.92
2018-02-03T19:32:01.335Z,88.79
2018-02-03T19:34:27.151Z,93.71
2018-02-03T19:36:52.959Z,92.93
2018-02-03T19:39:18.742Z,88.20
2018-02-03T19:41:44.640Z,87.83
2018-02-03T19:44:10.444Z,88.78
2018-02-03T19:46:36.239Z,88.91
2018-02-03T19:49:02.058Z,88.54
2018-02-03T19:51:27.862Z,88.31
2018-02-03T19:53:53.668Z,87.80
2018-02-03T19:56:19.460Z,88.57
2018-02-03T19:58:45.343Z,88.43
2018-02-03T20:01:11.140Z,88.93
2018-02-03T20:03:36.929Z,88.82
2018-02-03T20:06:02.747Z,89.16
2018-02-03T20:08:28.612Z,89.94
2018-02-03T20:10:54.425Z,89.89
2018-02-03T20:13:20.239Z,89.07
2018-02-03T20:15:46.039Z,89.58
2018-02-03T20:18:11.879Z,89.75
2018-02-03T20:20:37.683Z,90.68
2018-02-03T20:23:03.496Z,89.73
2018-02-03T20:25:30.152Z,100.00
2018-02-03T20:27:55.931Z,92.58
2018-02-03T20:30:21.763Z,89.16
2018-02-03T20:32:47.565Z,89.22
2018-02-03T20:35:13.358Z,89.42
2018-02-03T20:37:39.146Z,89.37
2018-02-03T20:40:04.955Z,89.18
2018-02-03T20:42:30.765Z,89.55
2018-02-03T20:44:56.560Z,90.04
2018-02-03T20:47:22.384Z,89.92
2018-02-03T20:49:48.213Z,92.43
2018-02-03T20:52:14.036Z,91.97
2018-02-03T20:54:39.803Z,94.13
2018-02-03T20:57:05.622Z,90.18
2018-02-03T20:59:31.425Z,89.91
2018-02-03T21:01:57.283Z,93.61
2018-02-03T21:04:23.075Z,88.66
2018-02-03T21:06:48.872Z,89.26
2018-02-03T21:09:14.668Z,89.52
2018-02-03T21:11:40.464Z,91.14
2018-02-03T21:14:06.270Z,90.03
2018-02-03T21:16:32.080Z,90.49
2018-02-03T21:18:57.875Z,89.56
2018-02-03T21:21:23.662Z,90.13
2018-02-03T21:23:49.467Z,90.44
2018-02-03T21:26:15.294Z,90.11
2018-02-03T21:28:41.090Z,90.67
2018-02-03T21:31:06.893Z,90.68
2018-02-03T21:33:32.694Z,90.25
2018-02-03T21:35:58.559Z,90.14
2018-02-03T21:38:24.540Z,89.47
2018-02-03T21:40:50.342Z,89.63
2018-02-03T21:43:16.148Z,89.39
2018-02-03T21:45:41.948Z,90.10
2018-02-03T21:48:07.760Z,89.84
2018-02-03T21:50:33.624Z,89.92
2018-02-03T21:52:59.431Z,90.69
2018-02-03T21:55:25.224Z,90.34
2018-02-03T21:57:51.013Z,89.65
2018-02-03T22:00:16.821Z,90.27
2018-02-03T22:02:42.621Z,90.55
2018-02-03T22:05:08.416Z,89.68
2018-02-03T22:07:34.218Z,90.12
2018-02-03T22:10:00.411Z,90.01
2018-02-03T22:12:26.231Z,89.63
2018-02-03T22:17:30.079Z,90.22
2018-02-03T22:19:55.944Z,89.15
2018-02-03T22:22:21.737Z,90.95
2018-02-03T22:24:47.524Z,89.84
2018-02-03T22:27:13.324Z,89.86
2018-02-03T22:29:39.130Z,90.02
2018-02-03T22:32:04.934Z,90.08
2018-02-03T22:34:31.089Z,90.08
2018-02-03T22:36:56.888Z,89.73
2018-02-03T22:39:22.731Z,89.55
2018-02-03T22:41:48.566Z,89.92
2018-02-03T22:44:14.359Z,90.19
2018-02-03T22:46:40.198Z,90.47
2018-02-03T22:49:06.016Z,90.16
2018-02-03T22:51:31.815Z,89.98
2018-02-03T22:53:57.615Z,89.92
2018-02-03T22:56:23.420Z,89.12
2018-02-03T22:58:49.219Z,89.57
2018-02-03T23:01:16.903Z,89.59
2018-02-03T23:03:42.737Z,90.82
2018-02-03T23:06:08.516Z,90.16
2018-02-03T23:08:34.532Z,90.01
2018-02-03T23:11:00.339Z,89.98
2018-02-03T23:13:26.140Z,91.29
2018-02-03T23:15:51.935Z,91.32
2018-02-03T23:18:17.739Z,91.83
2018-02-03T23:20:43.579Z,91.87
2018-02-03T23:23:09.400Z,92.28
2018-02-03T23:25:35.205Z,91.71
2018-02-03T23:28:01.020Z,91.27
2018-02-03T23:30:26.863Z,90.94
2018-02-03T23:32:52.673Z,91.58
2018-02-03T23:35:18.483Z,93.17
2018-02-03T23:37:44.308Z,93.60
2018-02-03T23:40:10.107Z,93.93
2018-02-03T23:42:35.900Z,93.72
2018-02-03T23:45:01.691Z,93.70
2018-02-03T23:47:27.480Z,94.81
2018-02-03T23:49:55.723Z,95.85
